sensor_id;sensor_type;location;lat;lon;timestamp;temperature;humidity
506;DHT22;551;48.524;9.056;2024-01-10T00:00:18;-2.30;1.00
506;DHT22;551;48.524;9.056;2024-01-10T00:02:47;-2.30;1.00
506;DHT22;551;48.524;9.056;2024-01-10T00:05:13;-2.30;1.00
506;DHT22;551;48.524;9.056;2024-01-10T00:07:38;-2.30;1.00
506;DHT22;551;48.524;9.056;2024-01-10T00:10:04;-2.30;1.00
506;DHT22;551;48.524;9.056;2024-01-10T00:12:30;-2.20;1.00
506;DHT22;551;48.524;9.056;2024-01-10T00:15:00;-2.10;1.00
506;DHT22;551;48.524;9.056;2024-01-10T00:17:26;-2.10;1.00
506;DHT22;551;48.524;9.056;2024-01-10T00:19:51;-1.90;1.00
506;DHT22;551;48.524;9.056;2024-01-10T00:22:17;-1.90;1.00
506;DHT22;551;48.524;9.056;2024-01-10T00:24:42;-1.90;1.00
506;DHT22;551;48.524;9.056;2024-01-10T00:27:07;-1.90;1.00
506;DHT22;551;48.524;9.056;2024-01-10T00:29:33;-1.80;1.00
506;DHT22;551;48.524;9.056;2024-01-10T00:31:59;-1.90;1.00
506;DHT22;551;48.524;9.056;2024-01-10T00:34:25;-1.80;1.00
506;DHT22;551;48.524;9.056;2024-01-10T00:36:50;-1.80;1.00
506;DHT22;551;48.524;9.056;2024-01-10T00:39:16;-1.70;1.00
506;DHT22;551;48.524;9.056;2024-01-10T00:41:41;-1.70;1.00
506;DHT22;551;48.524;9.056;2024-01-10T00:44:07;-1.70;1.00
506;DHT22;551;48.524;9.056;2024-01-10T00:46:32;-1.90;1.00
506;DHT22;551;48.524;9.056;2024-01-10T00:49:00;-1.90;1.00
506;DHT22;551;48.524;9.056;2024-01-10T00:51:26;-1.80;1.00
506;DHT22;551;48.524;9.056;2024-01-10T00:53:51;-1.90;1.00
506;DHT22;551;48.524;9.056;2024-01-10T00:56:17;-2.00;1.00
506;DHT22;551;48.524;9.056;2024-01-10T00:58:42;-2.00;1.00
506;DHT22;551;48.524;9.056;2024-01-10T01:01:08;-2.00;1.00
506;DHT22;551;48.524;9.056;2024-01-10T01:03:33;-2.00;1.00
506;DHT22;551;48.524;9.056;2024-01-10T01:05:59;-1.90;1.00
506;DHT22;551;48.524;9.056;2024-01-10T01:08:25;-1.90;1.00
506;DHT22;551;48.524;9.056;2024-01-10T01:10:50;-2.00;1.00
506;DHT22;551;48.524;9.056;2024-01-10T01:13:16;-1.90;1.00
506;DHT22;551;48.524;9.056;2024-01-10T01:15:41;-1.80;1.00
506;DHT22;551;48.524;9.056;2024-01-10T01:18:07;-1.80;1.00
506;DHT22;551;48.524;9.056;2024-01-10T01:20:32;-1.80;1.00
506;DHT22;551;48.524;9.056;2024-01-10T01:22:58;-1.70;1.00
506;DHT22;551;48.524;9.056;2024-01-10T01:25:23;-1.80;1.00
506;DHT22;551;48.524;9.056;2024-01-10T01:27:49;-1.60;1.00
506;DHT22;551;48.524;9.056;2024-01-10T01:30:14;-1.80;1.00
506;DHT22;551;48.524;9.056;2024-01-10T01:32:40;-1.80;1.00
506;DHT22;551;48.524;9.056;2024-01-10T01:35:06;-1.80;1.00
506;DHT22;551;48.524;9.056;2024-01-10T01:37:31;-1.80;1.00
506;DHT22;551;48.524;9.056;2024-01-10T01:39:57;-1.80;1.00
506;DHT22;551;48.524;9.056;2024-01-10T01:42:22;-1.80;1.00
506;DHT22;551;48.524;9.056;2024-01-10T01:44:48;-1.80;1.00
506;DHT22;551;48.524;9.056;2024-01-10T01:47:14;-1.80;1.00
506;DHT22;551;48.524;9.056;2024-01-10T01:49:40;-1.70;1.00
506;DHT22;551;48.524;9.056;2024-01-10T01:52:08;-1.70;1.00
506;DHT22;551;48.524;9.056;2024-01-10T01:54:34;-2.00;1.00
506;DHT22;551;48.524;9.056;2024-01-10T01:57:00;-1.90;1.00
506;DHT22;551;48.524;9.056;2024-01-10T01:59:25;-1.80;1.00
506;DHT22;551;48.524;9.056;2024-01-10T02:01:52;-1.80;1.00
506;DHT22;551;48.524;9.056;2024-01-10T02:04:18;-1.80;1.00
506;DHT22;551;48.524;9.056;2024-01-10T02:06:45;-1.80;1.00
506;DHT22;551;48.524;9.056;2024-01-10T02:09:10;-1.80;1.00
506;DHT22;551;48.524;9.056;2024-01-10T02:11:36;-1.80;1.00
506;DHT22;551;48.524;9.056;2024-01-10T02:14:01;-1.70;1.00
506;DHT22;551;48.524;9.056;2024-01-10T02:16:28;-1.80;1.00
506;DHT22;551;48.524;9.056;2024-01-10T02:18:53;-1.70;1.00
506;DHT22;551;48.524;9.056;2024-01-10T02:21:22;-1.70;1.00
506;DHT22;551;48.524;9.056;2024-01-10T02:23:47;-1.70;1.00
506;DHT22;551;48.524;9.056;2024-01-10T02:26:14;-1.60;1.00
506;DHT22;551;48.524;9.056;2024-01-10T02:28:40;-1.60;1.00
506;DHT22;551;48.524;9.056;2024-01-10T02:31:06;-1.50;1.00
506;DHT22;551;48.524;9.056;2024-01-10T02:33:32;-1.50;1.00
506;DHT22;551;48.524;9.056;2024-01-10T02:35:58;-1.50;1.00
506;DHT22;551;48.524;9.056;2024-01-10T02:38:23;-1.50;1.00
506;DHT22;551;48.524;9.056;2024-01-10T02:40:49;-1.50;1.00
506;DHT22;551;48.524;9.056;2024-01-10T02:43:15;-1.50;1.00
506;DHT22;551;48.524;9.056;2024-01-10T02:45:41;-1.50;1.00
506;DHT22;551;48.524;9.056;2024-01-10T02:48:07;-1.50;1.00
506;DHT22;551;48.524;9.056;2024-01-10T02:50:32;-1.50;1.00
506;DHT22;551;48.524;9.056;2024-01-10T02:52:59;-1.40;1.00
506;DHT22;551;48.524;9.056;2024-01-10T02:55:25;-1.40;1.00
506;DHT22;551;48.524;9.056;2024-01-10T02:57:50;-1.50;1.00
506;DHT22;551;48.524;9.056;2024-01-10T03:00:16;-1.40;1.00
506;DHT22;551;48.524;9.056;2024-01-10T03:02:41;-1.40;1.00
506;DHT22;551;48.524;9.056;2024-01-10T03:05:07;-1.50;1.00
506;DHT22;551;48.524;9.056;2024-01-10T03:07:32;-1.40;1.00
506;DHT22;551;48.524;9.056;2024-01-10T03:09:58;-1.50;1.00
506;DHT22;551;48.524;9.056;2024-01-10T03:12:23;-1.50;1.00
506;DHT22;551;48.524;9.056;2024-01-10T03:14:49;-1.50;1.00
506;DHT22;551;48.524;9.056;2024-01-10T03:17:14;-1.60;1.00
506;DHT22;551;48.524;9.056;2024-01-10T03:19:40;-1.60;1.00
506;DHT22;551;48.524;9.056;2024-01-10T03:22:09;-1.70;1.00
506;DHT22;551;48.524;9.056;2024-01-10T03:24:35;-1.70;1.00
506;DHT22;551;48.524;9.056;2024-01-10T03:27:01;-1.70;1.00
506;DHT22;551;48.524;9.056;2024-01-10T03:29:27;-1.70;1.00
506;DHT22;551;48.524;9.056;2024-01-10T03:31:53;-1.70;1.00
506;DHT22;551;48.524;9.056;2024-01-10T03:34:18;-1.70;1.00
506;DHT22;551;48.524;9.056;2024-01-10T03:36:44;-1.60;1.00
506;DHT22;551;48.524;9.056;2024-01-10T03:39:09;-1.60;1.00
506;DHT22;551;48.524;9.056;2024-01-10T03:41:35;-1.50;1.00
506;DHT22;551;48.524;9.056;2024-01-10T03:44:01;-1.50;1.00
506;DHT22;551;48.524;9.056;2024-01-10T03:46:26;-1.40;1.00
506;DHT22;551;48.524;9.056;2024-01-10T03:48:52;-1.30;1.00
506;DHT22;551;48.524;9.056;2024-01-10T03:51:18;-1.20;1.00
506;DHT22;551;48.524;9.056;2024-01-10T03:53:47;-1.10;1.00
506;DHT22;551;48.524;9.056;2024-01-10T03:56:15;-1.10;1.00
506;DHT22;551;48.524;9.056;2024-01-10T03:58:40;-1.10;1.00
506;DHT22;551;48.524;9.056;2024-01-10T04:01:09;-1.10;1.00
506;DHT22;551;48.524;9.056;2024-01-10T04:03:35;-1.10;1.00
506;DHT22;551;48.524;9.056;2024-01-10T04:06:01;-1.20;1.00
506;DHT22;551;48.524;9.056;2024-01-10T04:08:27;-1.30;1.00
506;DHT22;551;48.524;9.056;2024-01-10T04:10:53;-1.30;1.00
506;DHT22;551;48.524;9.056;2024-01-10T04:13:18;-1.20;1.00
506;DHT22;551;48.524;9.056;2024-01-10T04:15:44;-1.20;1.00
506;DHT22;551;48.524;9.056;2024-01-10T04:18:09;-1.30;1.00
506;DHT22;551;48.524;9.056;2024-01-10T04:20:35;-1.30;1.00
506;DHT22;551;48.524;9.056;2024-01-10T04:23:00;-1.30;1.00
506;DHT22;551;48.524;9.056;2024-01-10T04:25:26;-1.20;1.00
506;DHT22;551;48.524;9.056;2024-01-10T04:27:51;-1.20;1.00
506;DHT22;551;48.524;9.056;2024-01-10T04:30:17;-1.20;1.00
506;DHT22;551;48.524;9.056;2024-01-10T04:32:42;-1.20;1.00
506;DHT22;551;48.524;9.056;2024-01-10T04:35:08;-1.10;1.00
506;DHT22;551;48.524;9.056;2024-01-10T04:37:33;-1.10;1.00
506;DHT22;551;48.524;9.056;2024-01-10T04:39:59;-1.10;1.00
506;DHT22;551;48.524;9.056;2024-01-10T04:42:24;-1.00;1.00
506;DHT22;551;48.524;9.056;2024-01-10T04:44:50;-0.90;1.00
506;DHT22;551;48.524;9.056;2024-01-10T04:47:16;-0.90;1.00
506;DHT22;551;48.524;9.056;2024-01-10T04:49:42;-0.90;1.00
506;DHT22;551;48.524;9.056;2024-01-10T04:52:07;-0.80;1.00
506;DHT22;551;48.524;9.056;2024-01-10T04:54:33;-0.80;1.00
506;DHT22;551;48.524;9.056;2024-01-10T04:56:59;-0.80;1.00
506;DHT22;551;48.524;9.056;2024-01-10T04:59:24;-0.80;1.00
506;DHT22;551;48.524;9.056;2024-01-10T05:01:50;-1.00;1.00
506;DHT22;551;48.524;9.056;2024-01-10T05:04:15;-1.00;1.00
506;DHT22;551;48.524;9.056;2024-01-10T05:06:41;-1.00;1.00
506;DHT22;551;48.524;9.056;2024-01-10T05:09:06;-0.90;1.00
506;DHT22;551;48.524;9.056;2024-01-10T05:11:32;-0.90;1.00
506;DHT22;551;48.524;9.056;2024-01-10T05:14:00;-1.00;1.00
506;DHT22;551;48.524;9.056;2024-01-10T05:16:25;-1.00;1.00
506;DHT22;551;48.524;9.056;2024-01-10T05:18:51;-1.00;1.00
506;DHT22;551;48.524;9.056;2024-01-10T05:21:16;-1.00;1.00
506;DHT22;551;48.524;9.056;2024-01-10T05:23:42;-0.90;1.00
506;DHT22;551;48.524;9.056;2024-01-10T05:26:07;-0.90;1.00
506;DHT22;551;48.524;9.056;2024-01-10T05:28:33;-0.90;1.00
506;DHT22;551;48.524;9.056;2024-01-10T05:30:59;-1.00;1.00
506;DHT22;551;48.524;9.056;2024-01-10T05:33:24;-1.00;1.00
506;DHT22;551;48.524;9.056;2024-01-10T05:35:50;-1.10;1.00
506;DHT22;551;48.524;9.056;2024-01-10T05:38:15;-1.10;1.00
506;DHT22;551;48.524;9.056;2024-01-10T05:40:41;-1.20;1.00
506;DHT22;551;48.524;9.056;2024-01-10T05:43:07;-1.30;1.00
506;DHT22;551;48.524;9.056;2024-01-10T05:45:32;-1.30;1.00
506;DHT22;551;48.524;9.056;2024-01-10T05:47:58;-1.30;1.00
506;DHT22;551;48.524;9.056;2024-01-10T05:50:24;-1.30;1.00
506;DHT22;551;48.524;9.056;2024-01-10T05:52:50;-1.30;1.00
506;DHT22;551;48.524;9.056;2024-01-10T05:55:15;-1.40;1.00
506;DHT22;551;48.524;9.056;2024-01-10T05:57:41;-1.40;1.00
506;DHT22;551;48.524;9.056;2024-01-10T06:00:07;-1.50;1.00
506;DHT22;551;48.524;9.056;2024-01-10T06:02:37;-1.60;1.00
506;DHT22;551;48.524;9.056;2024-01-10T06:05:07;-1.60;1.00
506;DHT22;551;48.524;9.056;2024-01-10T06:07:37;-1.60;1.00
506;DHT22;551;48.524;9.056;2024-01-10T06:10:03;-1.70;1.00
506;DHT22;551;48.524;9.056;2024-01-10T06:12:29;-1.70;1.00
506;DHT22;551;48.524;9.056;2024-01-10T06:14:55;-1.80;1.00
506;DHT22;551;48.524;9.056;2024-01-10T06:17:21;-1.80;1.00
506;DHT22;551;48.524;9.056;2024-01-10T06:19:47;-1.90;1.00
506;DHT22;551;48.524;9.056;2024-01-10T06:22:13;-1.90;1.00
506;DHT22;551;48.524;9.056;2024-01-10T06:24:39;-1.90;1.00
506;DHT22;551;48.524;9.056;2024-01-10T06:27:05;-1.90;1.00
506;DHT22;551;48.524;9.056;2024-01-10T06:29:31;-1.90;1.00
506;DHT22;551;48.524;9.056;2024-01-10T06:31:57;-1.90;1.00
506;DHT22;551;48.524;9.056;2024-01-10T06:34:23;-1.90;1.00
506;DHT22;551;48.524;9.056;2024-01-10T06:36:49;-1.90;1.00
506;DHT22;551;48.524;9.056;2024-01-10T06:39:15;-2.00;1.00
506;DHT22;551;48.524;9.056;2024-01-10T06:41:41;-2.00;1.00
506;DHT22;551;48.524;9.056;2024-01-10T06:44:08;-1.90;1.00
506;DHT22;551;48.524;9.056;2024-01-10T06:46:33;-1.90;1.00
506;DHT22;551;48.524;9.056;2024-01-10T06:48:59;-1.90;1.00
506;DHT22;551;48.524;9.056;2024-01-10T06:51:24;-2.00;1.00
506;DHT22;551;48.524;9.056;2024-01-10T06:53:52;-2.00;1.00
506;DHT22;551;48.524;9.056;2024-01-10T06:56:20;-2.10;1.00
506;DHT22;551;48.524;9.056;2024-01-10T06:58:46;-2.10;1.00
506;DHT22;551;48.524;9.056;2024-01-10T07:01:12;-2.10;1.00
506;DHT22;551;48.524;9.056;2024-01-10T07:03:39;-2.10;1.00
506;DHT22;551;48.524;9.056;2024-01-10T07:06:04;-2.10;1.00
506;DHT22;551;48.524;9.056;2024-01-10T07:08:30;-2.10;1.00
506;DHT22;551;48.524;9.056;2024-01-10T07:10:56;-2.10;1.00
506;DHT22;551;48.524;9.056;2024-01-10T07:13:22;-2.10;1.00
506;DHT22;551;48.524;9.056;2024-01-10T07:15:48;-2.10;1.00
506;DHT22;551;48.524;9.056;2024-01-10T07:18:16;-2.00;1.00
506;DHT22;551;48.524;9.056;2024-01-10T07:20:41;-2.00;1.00
506;DHT22;551;48.524;9.056;2024-01-10T07:23:07;-2.10;1.00
506;DHT22;551;48.524;9.056;2024-01-10T07:25:32;-2.10;1.00
506;DHT22;551;48.524;9.056;2024-01-10T07:27:59;-2.00;1.00
506;DHT22;551;48.524;9.056;2024-01-10T07:30:24;-2.00;1.00
506;DHT22;551;48.524;9.056;2024-01-10T07:32:50;-2.00;1.00
506;DHT22;551;48.524;9.056;2024-01-10T07:35:15;-2.00;1.00
506;DHT22;551;48.524;9.056;2024-01-10T07:37:41;-2.00;1.00
506;DHT22;551;48.524;9.056;2024-01-10T07:40:08;-2.00;1.00
506;DHT22;551;48.524;9.056;2024-01-10T07:42:38;-2.00;1.00
506;DHT22;551;48.524;9.056;2024-01-10T07:45:05;-2.00;1.00
506;DHT22;551;48.524;9.056;2024-01-10T07:47:32;-1.90;1.00
506;DHT22;551;48.524;9.056;2024-01-10T07:49:59;-1.80;1.00
506;DHT22;551;48.524;9.056;2024-01-10T07:52:25;-1.70;1.00
506;DHT22;551;48.524;9.056;2024-01-10T07:54:50;-1.70;1.00
506;DHT22;551;48.524;9.056;2024-01-10T07:57:16;-1.70;1.00
506;DHT22;551;48.524;9.056;2024-01-10T07:59:44;-1.70;1.00
506;DHT22;551;48.524;9.056;2024-01-10T08:02:09;-1.70;1.00
506;DHT22;551;48.524;9.056;2024-01-10T08:04:35;-1.60;1.00
506;DHT22;551;48.524;9.056;2024-01-10T08:07:01;-1.70;1.00
506;DHT22;551;48.524;9.056;2024-01-10T08:09:27;-1.70;1.00
506;DHT22;551;48.524;9.056;2024-01-10T08:11:52;-1.80;1.00
506;DHT22;551;48.524;9.056;2024-01-10T08:14:18;-1.70;1.00
506;DHT22;551;48.524;9.056;2024-01-10T08:16:43;-1.70;1.00
506;DHT22;551;48.524;9.056;2024-01-10T08:19:11;-1.60;1.00
506;DHT22;551;48.524;9.056;2024-01-10T08:21:36;-1.50;1.00
506;DHT22;551;48.524;9.056;2024-01-10T08:24:03;-1.30;1.00
506;DHT22;551;48.524;9.056;2024-01-10T08:26:28;-1.20;1.00
506;DHT22;551;48.524;9.056;2024-01-10T08:28:54;-1.20;1.00
506;DHT22;551;48.524;9.056;2024-01-10T08:31:20;-1.10;1.00
506;DHT22;551;48.524;9.056;2024-01-10T08:33:45;-1.00;1.00
506;DHT22;551;48.524;9.056;2024-01-10T08:36:12;-0.90;1.00
506;DHT22;551;48.524;9.056;2024-01-10T08:38:38;-0.70;1.00
506;DHT22;551;48.524;9.056;2024-01-10T08:41:06;-0.50;1.00
506;DHT22;551;48.524;9.056;2024-01-10T08:43:32;-0.30;1.00
506;DHT22;551;48.524;9.056;2024-01-10T08:45:58;-0.20;1.00
506;DHT22;551;48.524;9.056;2024-01-10T08:48:24;0.00;1.00
506;DHT22;551;48.524;9.056;2024-01-10T08:50:50;0.00;1.00
506;DHT22;551;48.524;9.056;2024-01-10T08:53:16;0.00;1.00
506;DHT22;551;48.524;9.056;2024-01-10T08:55:42;-0.10;1.00
506;DHT22;551;48.524;9.056;2024-01-10T08:58:07;-0.10;1.00
506;DHT22;551;48.524;9.056;2024-01-10T09:00:33;0.00;1.00
506;DHT22;551;48.524;9.056;2024-01-10T09:03:00;0.20;1.00
506;DHT22;551;48.524;9.056;2024-01-10T09:05:25;0.20;1.00
506;DHT22;551;48.524;9.056;2024-01-10T09:07:51;0.30;1.00
506;DHT22;551;48.524;9.056;2024-01-10T09:10:19;0.50;1.00
506;DHT22;551;48.524;9.056;2024-01-10T09:12:46;0.70;1.00
506;DHT22;551;48.524;9.056;2024-01-10T09:15:12;1.00;1.00
506;DHT22;551;48.524;9.056;2024-01-10T09:17:40;1.30;1.00
506;DHT22;551;48.524;9.056;2024-01-10T09:20:06;1.70;1.00
506;DHT22;551;48.524;9.056;2024-01-10T09:22:32;2.00;1.00
506;DHT22;551;48.524;9.056;2024-01-10T09:24:59;2.20;1.00
506;DHT22;551;48.524;9.056;2024-01-10T09:27:29;2.20;1.00
506;DHT22;551;48.524;9.056;2024-01-10T09:29:55;2.30;1.00
506;DHT22;551;48.524;9.056;2024-01-10T09:32:20;2.50;1.00
506;DHT22;551;48.524;9.056;2024-01-10T09:34:47;2.60;1.00
506;DHT22;551;48.524;9.056;2024-01-10T09:37:13;2.50;1.00
506;DHT22;551;48.524;9.056;2024-01-10T09:39:38;2.70;1.00
506;DHT22;551;48.524;9.056;2024-01-10T09:42:04;3.00;1.00
506;DHT22;551;48.524;9.056;2024-01-10T09:44:29;3.70;1.00
506;DHT22;551;48.524;9.056;2024-01-10T09:46:55;3.80;1.00
506;DHT22;551;48.524;9.056;2024-01-10T09:49:21;4.80;1.00
506;DHT22;551;48.524;9.056;2024-01-10T09:51:48;5.70;1.00
506;DHT22;551;48.524;9.056;2024-01-10T09:54:15;6.60;1.00
506;DHT22;551;48.524;9.056;2024-01-10T09:56:41;7.60;1.00
506;DHT22;551;48.524;9.056;2024-01-10T09:59:07;8.80;1.00
506;DHT22;551;48.524;9.056;2024-01-10T10:01:37;9.20;1.00
506;DHT22;551;48.524;9.056;2024-01-10T10:04:05;10.30;1.00
506;DHT22;551;48.524;9.056;2024-01-10T10:06:33;10.80;1.00
506;DHT22;551;48.524;9.056;2024-01-10T10:08:59;11.20;1.00
506;DHT22;551;48.524;9.056;2024-01-10T10:11:25;11.60;1.00
506;DHT22;551;48.524;9.056;2024-01-10T10:13:50;11.40;1.00
506;DHT22;551;48.524;9.056;2024-01-10T10:16:23;11.20;1.00
506;DHT22;551;48.524;9.056;2024-01-10T10:18:49;11.60;1.00
506;DHT22;551;48.524;9.056;2024-01-10T10:21:24;12.70;1.00
506;DHT22;551;48.524;9.056;2024-01-10T10:24:01;12.40;1.00
506;DHT22;551;48.524;9.056;2024-01-10T10:26:27;12.20;1.00
506;DHT22;551;48.524;9.056;2024-01-10T10:28:54;12.70;1.00
506;DHT22;551;48.524;9.056;2024-01-10T10:31:21;13.10;1.00
506;DHT22;551;48.524;9.056;2024-01-10T10:33:49;12.90;1.00
506;DHT22;551;48.524;9.056;2024-01-10T10:36:16;12.60;1.00
506;DHT22;551;48.524;9.056;2024-01-10T10:38:43;12.70;1.00
506;DHT22;551;48.524;9.056;2024-01-10T10:41:09;13.00;1.00
506;DHT22;551;48.524;9.056;2024-01-10T10:43:36;13.00;1.00
506;DHT22;551;48.524;9.056;2024-01-10T10:46:04;13.60;1.00
506;DHT22;551;48.524;9.056;2024-01-10T10:48:33;13.90;1.00
506;DHT22;551;48.524;9.056;2024-01-10T10:51:05;14.10;1.00
506;DHT22;551;48.524;9.056;2024-01-10T10:53:35;14.40;1.00
506;DHT22;551;48.524;9.056;2024-01-10T10:56:04;14.40;1.00
506;DHT22;551;48.524;9.056;2024-01-10T10:58:36;14.50;1.00
506;DHT22;551;48.524;9.056;2024-01-10T11:01:04;14.80;1.00
506;DHT22;551;48.524;9.056;2024-01-10T11:03:38;14.80;1.00
506;DHT22;551;48.524;9.056;2024-01-10T11:06:06;14.60;1.00
506;DHT22;551;48.524;9.056;2024-01-10T11:08:47;14.90;1.00
506;DHT22;551;48.524;9.056;2024-01-10T11:20:02;15.80;1.00
506;DHT22;551;48.524;9.056;2024-01-10T11:25:04;15.50;1.00
506;DHT22;551;48.524;9.056;2024-01-10T11:27:30;15.20;1.00
506;DHT22;551;48.524;9.056;2024-01-10T11:29:56;15.10;1.00
506;DHT22;551;48.524;9.056;2024-01-10T11:32:24;15.00;1.00
506;DHT22;551;48.524;9.056;2024-01-10T11:34:59;14.80;1.00
506;DHT22;551;48.524;9.056;2024-01-10T11:37:43;14.70;1.00
506;DHT22;551;48.524;9.056;2024-01-10T11:40:09;15.00;1.00
506;DHT22;551;48.524;9.056;2024-01-10T11:42:45;15.20;1.00
506;DHT22;551;48.524;9.056;2024-01-10T11:47:58;15.50;1.00
506;DHT22;551;48.524;9.056;2024-01-10T11:50:24;15.60;1.00
506;DHT22;551;48.524;9.056;2024-01-10T11:52:53;15.70;1.00
506;DHT22;551;48.524;9.056;2024-01-10T11:55:50;15.30;1.00
506;DHT22;551;48.524;9.056;2024-01-10T11:58:17;15.00;1.00
506;DHT22;551;48.524;9.056;2024-01-10T12:00:43;15.20;1.00
506;DHT22;551;48.524;9.056;2024-01-10T12:03:11;15.10;1.00
506;DHT22;551;48.524;9.056;2024-01-10T12:05:37;15.20;1.00
506;DHT22;551;48.524;9.056;2024-01-10T12:08:07;15.20;1.00
506;DHT22;551;48.524;9.056;2024-01-10T12:10:33;14.80;1.00
506;DHT22;551;48.524;9.056;2024-01-10T12:13:03;14.90;1.00
506;DHT22;551;48.524;9.056;2024-01-10T12:15:28;15.30;1.00
506;DHT22;551;48.524;9.056;2024-01-10T12:17:55;15.80;1.00
506;DHT22;551;48.524;9.056;2024-01-10T12:20:21;15.70;1.00
506;DHT22;551;48.524;9.056;2024-01-10T12:22:46;15.50;1.00
506;DHT22;551;48.524;9.056;2024-01-10T12:25:12;15.40;1.00
506;DHT22;551;48.524;9.056;2024-01-10T12:27:38;15.60;1.00
506;DHT22;551;48.524;9.056;2024-01-10T12:30:04;15.40;1.00
506;DHT22;551;48.524;9.056;2024-01-10T12:32:31;15.60;1.00
506;DHT22;551;48.524;9.056;2024-01-10T12:35:04;15.60;1.00
506;DHT22;551;48.524;9.056;2024-01-10T12:37:30;15.60;1.00
506;DHT22;551;48.524;9.056;2024-01-10T12:39:56;15.60;1.00
506;DHT22;551;48.524;9.056;2024-01-10T12:42:22;15.60;1.00
506;DHT22;551;48.524;9.056;2024-01-10T12:44:49;15.60;1.00
506;DHT22;551;48.524;9.056;2024-01-10T12:47:21;15.30;1.00
506;DHT22;551;48.524;9.056;2024-01-10T12:49:47;15.70;1.00
506;DHT22;551;48.524;9.056;2024-01-10T12:52:13;15.60;1.00
506;DHT22;551;48.524;9.056;2024-01-10T12:54:39;16.10;1.00
506;DHT22;551;48.524;9.056;2024-01-10T12:57:05;16.40;1.00
506;DHT22;551;48.524;9.056;2024-01-10T12:59:31;15.90;1.00
506;DHT22;551;48.524;9.056;2024-01-10T13:01:56;16.30;1.00
506;DHT22;551;48.524;9.056;2024-01-10T13:04:22;16.10;1.00
506;DHT22;551;48.524;9.056;2024-01-10T13:06:48;16.20;1.00
506;DHT22;551;48.524;9.056;2024-01-10T13:09:13;16.40;1.00
506;DHT22;551;48.524;9.056;2024-01-10T13:11:39;15.90;1.00
506;DHT22;551;48.524;9.056;2024-01-10T13:14:04;15.60;1.00
506;DHT22;551;48.524;9.056;2024-01-10T13:16:30;16.00;1.00
506;DHT22;551;48.524;9.056;2024-01-10T13:18:56;16.30;1.00
506;DHT22;551;48.524;9.056;2024-01-10T13:21:22;16.10;1.00
506;DHT22;551;48.524;9.056;2024-01-10T13:23:48;15.90;1.00
506;DHT22;551;48.524;9.056;2024-01-10T13:26:13;16.00;1.00
506;DHT22;551;48.524;9.056;2024-01-10T13:28:40;16.50;1.00
506;DHT22;551;48.524;9.056;2024-01-10T13:31:06;16.20;1.00
506;DHT22;551;48.524;9.056;2024-01-10T13:33:31;15.80;1.00
506;DHT22;551;48.524;9.056;2024-01-10T13:35:57;15.70;1.00
506;DHT22;551;48.524;9.056;2024-01-10T13:38:23;15.70;1.00
506;DHT22;551;48.524;9.056;2024-01-10T13:40:49;15.60;1.00
506;DHT22;551;48.524;9.056;2024-01-10T13:43:15;15.40;1.00
506;DHT22;551;48.524;9.056;2024-01-10T13:45:41;15.20;1.00
506;DHT22;551;48.524;9.056;2024-01-10T13:48:06;15.40;1.00
506;DHT22;551;48.524;9.056;2024-01-10T13:50:33;15.30;1.00
506;DHT22;551;48.524;9.056;2024-01-10T13:52:58;15.40;1.00
506;DHT22;551;48.524;9.056;2024-01-10T13:55:23;15.10;1.00
506;DHT22;551;48.524;9.056;2024-01-10T13:57:50;14.90;1.00
506;DHT22;551;48.524;9.056;2024-01-10T14:00:15;14.90;1.00
506;DHT22;551;48.524;9.056;2024-01-10T14:02:42;14.70;1.00
506;DHT22;551;48.524;9.056;2024-01-10T14:05:08;14.60;1.00
506;DHT22;551;48.524;9.056;2024-01-10T14:07:35;14.80;1.00
506;DHT22;551;48.524;9.056;2024-01-10T14:10:01;14.80;1.00
506;DHT22;551;48.524;9.056;2024-01-10T14:12:27;14.50;1.00
506;DHT22;551;48.524;9.056;2024-01-10T14:14:54;14.50;1.00
506;DHT22;551;48.524;9.056;2024-01-10T14:17:21;14.60;1.00
506;DHT22;551;48.524;9.056;2024-01-10T14:19:51;14.80;1.00
506;DHT22;551;48.524;9.056;2024-01-10T14:22:17;14.60;1.00
506;DHT22;551;48.524;9.056;2024-01-10T14:24:43;14.40;1.00
506;DHT22;551;48.524;9.056;2024-01-10T14:27:09;14.20;1.00
506;DHT22;551;48.524;9.056;2024-01-10T14:29:35;13.90;1.00
506;DHT22;551;48.524;9.056;2024-01-10T14:32:01;13.00;1.00
506;DHT22;551;48.524;9.056;2024-01-10T14:34:27;13.20;1.00
506;DHT22;551;48.524;9.056;2024-01-10T14:39:18;11.80;1.00
506;DHT22;551;48.524;9.056;2024-01-10T14:41:44;11.60;1.00
506;DHT22;551;48.524;9.056;2024-01-10T14:44:10;11.00;1.00
506;DHT22;551;48.524;9.056;2024-01-10T14:46:36;10.10;1.00
506;DHT22;551;48.524;9.056;2024-01-10T14:49:01;9.50;1.00
506;DHT22;551;48.524;9.056;2024-01-10T14:51:27;8.80;1.00
506;DHT22;551;48.524;9.056;2024-01-10T14:53:53;8.20;1.00
506;DHT22;551;48.524;9.056;2024-01-10T14:56:18;7.70;1.00
506;DHT22;551;48.524;9.056;2024-01-10T14:58:44;7.40;1.00
506;DHT22;551;48.524;9.056;2024-01-10T15:01:10;7.20;1.00
506;DHT22;551;48.524;9.056;2024-01-10T15:03:36;7.10;1.00
506;DHT22;551;48.524;9.056;2024-01-10T15:06:04;6.80;1.00
506;DHT22;551;48.524;9.056;2024-01-10T15:08:31;6.30;1.00
506;DHT22;551;48.524;9.056;2024-01-10T15:10:56;6.30;1.00
506;DHT22;551;48.524;9.056;2024-01-10T15:13:22;6.10;1.00
506;DHT22;551;48.524;9.056;2024-01-10T15:15:48;6.00;1.00
506;DHT22;551;48.524;9.056;2024-01-10T15:18:13;5.80;1.00
506;DHT22;551;48.524;9.056;2024-01-10T15:20:40;5.50;1.00
506;DHT22;551;48.524;9.056;2024-01-10T15:23:05;5.30;1.00
506;DHT22;551;48.524;9.056;2024-01-10T15:25:31;5.10;1.00
506;DHT22;551;48.524;9.056;2024-01-10T15:27:57;5.10;1.00
506;DHT22;551;48.524;9.056;2024-01-10T15:30:24;5.00;1.00
506;DHT22;551;48.524;9.056;2024-01-10T15:32:49;4.80;1.00
506;DHT22;551;48.524;9.056;2024-01-10T15:35:16;4.70;1.00
506;DHT22;551;48.524;9.056;2024-01-10T15:37:43;4.60;1.00
506;DHT22;551;48.524;9.056;2024-01-10T15:40:09;4.00;1.00
506;DHT22;551;48.524;9.056;2024-01-10T15:42:39;4.40;1.00
506;DHT22;551;48.524;9.056;2024-01-10T15:45:05;4.30;1.00
506;DHT22;551;48.524;9.056;2024-01-10T15:47:31;4.20;1.00
506;DHT22;551;48.524;9.056;2024-01-10T15:49:56;4.20;1.00
506;DHT22;551;48.524;9.056;2024-01-10T15:52:22;4.20;1.00
506;DHT22;551;48.524;9.056;2024-01-10T15:54:52;4.10;1.00
506;DHT22;551;48.524;9.056;2024-01-10T15:57:23;4.00;1.00
506;DHT22;551;48.524;9.056;2024-01-10T15:59:49;4.00;1.00
506;DHT22;551;48.524;9.056;2024-01-10T16:02:15;3.90;1.00
506;DHT22;551;48.524;9.056;2024-01-10T16:04:40;3.90;1.00
506;DHT22;551;48.524;9.056;2024-01-10T16:07:06;3.80;1.00
506;DHT22;551;48.524;9.056;2024-01-10T16:09:32;3.70;1.00
506;DHT22;551;48.524;9.056;2024-01-10T16:11:57;3.70;1.00
506;DHT22;551;48.524;9.056;2024-01-10T16:14:23;3.70;1.00
506;DHT22;551;48.524;9.056;2024-01-10T16:16:49;3.60;1.00
506;DHT22;551;48.524;9.056;2024-01-10T16:19:14;3.60;1.00
506;DHT22;551;48.524;9.056;2024-01-10T16:21:40;3.50;1.00
506;DHT22;551;48.524;9.056;2024-01-10T16:24:06;3.50;1.00
506;DHT22;551;48.524;9.056;2024-01-10T16:26:33;3.40;1.00
506;DHT22;551;48.524;9.056;2024-01-10T16:28:59;3.40;1.00
506;DHT22;551;48.524;9.056;2024-01-10T16:31:24;3.40;1.00
506;DHT22;551;48.524;9.056;2024-01-10T16:33:50;3.30;1.00
506;DHT22;551;48.524;9.056;2024-01-10T16:36:15;3.30;1.00
506;DHT22;551;48.524;9.056;2024-01-10T16:38:42;3.00;1.00
506;DHT22;551;48.524;9.056;2024-01-10T16:41:07;3.20;1.00
506;DHT22;551;48.524;9.056;2024-01-10T16:43:33;3.10;1.00
506;DHT22;551;48.524;9.056;2024-01-10T16:45:58;3.10;1.00
506;DHT22;551;48.524;9.056;2024-01-10T16:48:25;2.90;1.00
506;DHT22;551;48.524;9.056;2024-01-10T16:50:51;2.80;1.00
506;DHT22;551;48.524;9.056;2024-01-10T16:53:17;2.20;1.00
506;DHT22;551;48.524;9.056;2024-01-10T16:55:42;2.60;1.00
506;DHT22;551;48.524;9.056;2024-01-10T16:58:08;2.50;1.00
506;DHT22;551;48.524;9.056;2024-01-10T17:00:34;2.30;1.00
506;DHT22;551;48.524;9.056;2024-01-10T17:02:59;2.30;1.00
506;DHT22;551;48.524;9.056;2024-01-10T17:05:25;2.30;1.00